Anamosa, IA

7:52 AM CDT on May 25, 2015 (GMT -0500)
Whittier | | Change Station
CLOSE
Current Station
Personal Weather Station
Location: Springville, IA
Elevation: 885 ft
Nearby Weather Stations

Elev 885 ft 42.08 °N, 91.46 °W | Updated 6 seconds ago

Overcast
Overcast
63.2 °F
Feels Like 63.2 °F
N
8.2
Wind Variable Wind from SW
Gusts 11.5 mph

Today
High -- | Low -- °F
--% Chance of Precip.
Yesterday
High -- | Low -- °F
Precip. -- in
5:35 AM 8:28 PM
Waxing Crescent, 48% visible
Pressure 29.79 in
Visibility 4.0 miles
Clouds Mostly Cloudy 1200 ft
Mostly Cloudy 1900 ft
Overcast 2900 ft
Dew Point 62 °F
Humidity 96%
Rainfall 0.07 in
Snow Depth Not available.
UV 0 out of 12
Pollen 4.00 out of 12
Air Quality Not available.
Flu Activity Sporadic
METAR KMXO 251235Z AUTO 23009KT 4SM BR BKN012 BKN019 OVC029 18/18 A2979 RMK AO2

More Conditions Fewer Conditions

Pressure 29.79 in
Visibility 4.0 miles
Clouds Mostly Cloudy 1200 ft
Mostly Cloudy 1900 ft
Overcast 2900 ft
Dew Point 62 °F
Humidity 96%
Rainfall 0.07 in
Snow Depth Not available.
UV 0 out of 12
Pollen 4.00 out of 12
Air Quality Not available.
Flu Activity Sporadic
METAR KMXO 251235Z AUTO 23009KT 4SM BR BKN012 BKN019 OVC029 18/18 A2979 RMK AO2

More Conditions Fewer Conditions

10-Day Weather Forecast

Almanac

Astronomy

May. 25, 2015 Rise Set
Actual Time
Civil Twilight
Nautical Twilight
Astronomical Twilight
Moon
Length of Visible Light
Length of Day
Tomorrow will be .
, % of the Moon is Illuminated

Today's Extremes

State Highs State Lows

Community

WunderPhotos

Upload Photos

1,823,990 photos uploaded!

WunderBlogs® & News

Nearby

Air Quality

  Air Quality AQ Index Pollutant
Not available.

Snow Depth

Station Depth Elevation

Earthquake Activity

City Distance Mag. Time & Date
Minimum magnitude displayed is 2.5.

Coastal Water Temperatures

Place Temperature

Stations

Nearby Weather Stations

Station Location Temp. Windchill Dew Point Humidity Wind Precip. Elev Updated Type